createdAt,value
2019-01-08T00:01:05.157Z,88.82
2019-01-08T00:03:37.243Z,88.98
2019-01-08T00:06:10.484Z,89.12
2019-01-08T00:08:44.675Z,88.76
2019-01-08T00:11:18.561Z,89.05
2019-01-08T00:13:51.520Z,88.61
2019-01-08T00:16:22.824Z,88.15
2019-01-08T00:18:55.832Z,87.94
2019-01-08T00:21:27.105Z,87.81
2019-01-08T00:24:07.445Z,87.06
2019-01-08T00:26:47.572Z,87.35
2019-01-08T00:29:27.033Z,86.03
2019-01-08T00:32:05.928Z,86.64
2019-01-08T00:34:43.422Z,87.12
2019-01-08T00:37:15.331Z,87.09
2019-01-08T00:39:46.678Z,86.44
2019-01-08T00:42:18.655Z,86.08
2019-01-08T00:44:52.652Z,86.26
2019-01-08T00:47:26.010Z,86.62
2019-01-08T00:49:57.755Z,87.10
2019-01-08T00:52:29.699Z,86.61
2019-01-08T00:55:10.916Z,86.74
2019-01-08T00:57:42.851Z,86.61
2019-01-08T01:00:17.099Z,86.91
2019-01-08T01:02:50.077Z,86.58
2019-01-08T01:05:23.919Z,86.48
2019-01-08T01:07:57.781Z,86.82
2019-01-08T01:10:35.975Z,86.60
2019-01-08T01:13:13.735Z,86.62
2019-01-08T01:15:47.820Z,86.86
2019-01-08T01:18:20.550Z,86.07
2019-01-08T01:20:57.867Z,85.72
2019-01-08T01:23:37.362Z,85.76
2019-01-08T01:26:12.649Z,85.10
2019-01-08T01:28:44.753Z,85.36
2019-01-08T01:31:23.158Z,85.39
2019-01-08T01:33:55.802Z,85.09
2019-01-08T01:36:29.348Z,85.90
2019-01-08T01:39:01.938Z,85.70
2019-01-08T01:41:33.316Z,86.14
2019-01-08T01:44:18.384Z,85.75
2019-01-08T01:46:56.997Z,85.87
2019-01-08T01:49:30.633Z,86.42
2019-01-08T01:52:02.878Z,86.13
2019-01-08T01:54:43.983Z,86.28
2019-01-08T01:57:22.956Z,86.87
2019-01-08T01:59:55.836Z,86.14
2019-01-08T02:02:29.050Z,86.03
2019-01-08T02:05:03.528Z,86.07
2019-01-08T02:07:35.271Z,86.31
2019-01-08T02:10:07.508Z,85.31
2019-01-08T02:12:40.492Z,85.49
2019-01-08T02:15:14.245Z,85.48
2019-01-08T02:17:47.217Z,85.20
2019-01-08T02:20:21.494Z,84.51
2019-01-08T02:22:54.124Z,84.43
2019-01-08T02:25:34.478Z,85.10
2019-01-08T02:28:07.342Z,85.77
2019-01-08T02:30:41.188Z,86.16
2019-01-08T02:33:14.715Z,86.50
2019-01-08T02:35:47.443Z,86.35
2019-01-08T02:38:19.201Z,85.66
2019-01-08T02:41:00.282Z,85.48
2019-01-08T02:43:32.390Z,85.30
2019-01-08T02:46:03.819Z,85.53
2019-01-08T02:48:35.210Z,84.99
2019-01-08T02:51:13.227Z,85.28
2019-01-08T02:53:51.831Z,85.17
2019-01-08T02:56:24.295Z,84.92
2019-01-08T02:59:02.964Z,84.72
2019-01-08T03:01:43.715Z,84.63
2019-01-08T03:04:24.130Z,84.13
2019-01-08T03:06:57.274Z,84.05
2019-01-08T03:09:32.282Z,83.46
2019-01-08T03:12:04.497Z,83.51
2019-01-08T03:14:36.964Z,82.72
2019-01-08T03:17:08.284Z,83.22
2019-01-08T03:19:42.376Z,83.62
2019-01-08T03:22:15.447Z,83.68
2019-01-08T03:24:58.629Z,83.93
2019-01-08T03:27:39.934Z,83.76
2019-01-08T03:30:17.700Z,83.90
2019-01-08T03:32:51.451Z,84.33
2019-01-08T03:35:25.393Z,83.68
2019-01-08T03:37:58.454Z,84.02
2019-01-08T03:40:39.992Z,84.16
2019-01-08T03:43:12.559Z,84.44
2019-01-08T03:45:47.848Z,84.70
2019-01-08T03:48:19.373Z,85.21
2019-01-08T03:50:55.443Z,85.00
2019-01-08T03:53:33.194Z,85.38
2019-01-08T03:56:06.582Z,85.28
2019-01-08T03:58:40.624Z,85.27
2019-01-08T04:01:13.483Z,85.48
2019-01-08T04:03:44.783Z,85.77
2019-01-08T04:06:18.064Z,86.69
2019-01-08T04:08:49.482Z,86.47
2019-01-08T04:11:23.600Z,86.95
2019-01-08T04:14:04.191Z,87.50
2019-01-08T04:16:42.770Z,87.86
2019-01-08T04:19:21.256Z,88.09
2019-01-08T04:22:00.564Z,88.20
2019-01-08T04:24:33.666Z,88.52
2019-01-08T04:27:08.177Z,88.74
2019-01-08T04:29:50.555Z,89.00
2019-01-08T04:32:29.609Z,88.90
2019-01-08T04:35:09.791Z,89.26
2019-01-08T04:37:47.793Z,89.72
2019-01-08T04:40:18.998Z,90.04
2019-01-08T04:42:51.747Z,90.48
2019-01-08T04:45:25.733Z,90.72
2019-01-08T04:47:59.635Z,90.81
2019-01-08T04:50:37.676Z,90.87
2019-01-08T04:53:09.783Z,90.48
2019-01-08T04:55:41.020Z,90.62
2019-01-08T04:58:12.809Z,90.49
2019-01-08T05:00:44.807Z,90.28
2019-01-08T05:03:18.036Z,89.81
2019-01-08T05:05:58.387Z,89.75
2019-01-08T05:08:33.586Z,90.34
2019-01-08T05:11:14.297Z,90.64
2019-01-08T05:13:52.943Z,91.20
2019-01-08T05:16:35.336Z,91.83
2019-01-08T05:19:08.019Z,92.05
2019-01-08T05:21:41.855Z,91.90
2019-01-08T05:24:13.848Z,91.86
2019-01-08T05:26:54.498Z,91.93
2019-01-08T05:29:28.062Z,92.87
2019-01-08T05:32:00.226Z,93.14
2019-01-08T05:34:32.536Z,92.95
2019-01-08T05:37:04.680Z,92.86
2019-01-08T05:39:35.925Z,92.91
2019-01-08T05:42:09.022Z,93.15
2019-01-08T05:44:42.396Z,92.63
2019-01-08T05:47:16.684Z,92.04
2019-01-08T05:49:50.213Z,91.62
2019-01-08T05:52:27.561Z,91.73
2019-01-08T05:55:00.277Z,91.46
2019-01-08T05:57:40.578Z,91.17
2019-01-08T06:00:23.062Z,91.10
2019-01-08T06:02:56.149Z,91.27
2019-01-08T06:05:33.195Z,91.19
2019-01-08T06:08:16.531Z,91.20
2019-01-08T06:10:54.935Z,91.03
2019-01-08T06:13:29.198Z,91.21
2019-01-08T06:16:07.814Z,91.19
2019-01-08T06:18:49.324Z,91.37
2019-01-08T06:21:30.200Z,91.10
2019-01-08T06:24:08.819Z,91.01
2019-01-08T06:26:42.914Z,91.12
2019-01-08T06:29:16.370Z,91.03
2019-01-08T06:31:50.007Z,91.07
2019-01-08T06:34:23.430Z,91.09
2019-01-08T06:36:57.302Z,90.74
2019-01-08T06:39:41.646Z,90.46
2019-01-08T06:42:22.429Z,90.43
2019-01-08T06:45:04.286Z,90.47
2019-01-08T06:47:35.596Z,90.57
2019-01-08T06:50:09.523Z,90.76
2019-01-08T06:52:42.271Z,90.93
2019-01-08T06:55:24.124Z,90.80
2019-01-08T06:57:56.114Z,90.67
2019-01-08T07:00:33.463Z,90.38
2019-01-08T07:03:14.080Z,90.10
2019-01-08T07:05:54.065Z,89.94
2019-01-08T07:08:30.729Z,90.22
2019-01-08T07:11:09.886Z,90.95
2019-01-08T07:13:47.286Z,90.75
2019-01-08T07:16:26.679Z,90.66
2019-01-08T07:19:07.115Z,90.58
2019-01-08T07:21:47.861Z,90.79
2019-01-08T07:24:27.719Z,91.51
2019-01-08T07:27:06.619Z,91.39
2019-01-08T07:29:38.563Z,91.45
2019-01-08T07:32:19.160Z,91.27
2019-01-08T07:34:52.260Z,91.28
2019-01-08T07:37:33.599Z,91.44
2019-01-08T07:40:12.982Z,91.53
2019-01-08T07:42:51.576Z,91.35
2019-01-08T07:45:30.426Z,91.21
2019-01-08T07:48:07.076Z,90.87
2019-01-08T07:50:38.660Z,90.97
2019-01-08T07:53:10.744Z,91.15
2019-01-08T07:55:48.248Z,90.91
2019-01-08T07:58:32.974Z,90.69
2019-01-08T08:01:11.292Z,90.76
2019-01-08T08:03:51.658Z,90.73
2019-01-08T08:06:31.375Z,90.94
2019-01-08T08:09:06.715Z,91.04
2019-01-08T08:11:39.739Z,91.55
2019-01-08T08:14:23.962Z,92.13
2019-01-08T08:17:04.300Z,92.38
2019-01-08T08:19:35.567Z,92.44
2019-01-08T08:22:09.007Z,92.92
2019-01-08T08:24:41.868Z,93.07
2019-01-08T08:27:15.716Z,93.11
2019-01-08T08:29:47.565Z,92.78
2019-01-08T08:32:18.771Z,92.58
2019-01-08T08:34:58.583Z,92.39
2019-01-08T08:37:29.790Z,92.19
2019-01-08T08:40:01.765Z,91.75
2019-01-08T08:42:39.491Z,91.53
2019-01-08T08:45:10.835Z,90.90
2019-01-08T08:47:50.767Z,90.29
2019-01-08T08:50:31.071Z,90.54
2019-01-08T08:53:03.723Z,90.42
2019-01-08T08:55:35.445Z,90.51
2019-01-08T08:58:14.220Z,90.14
2019-01-08T09:00:46.941Z,89.50
2019-01-08T09:03:20.011Z,89.38
2019-01-08T09:06:03.727Z,89.71
2019-01-08T09:08:41.110Z,89.70
2019-01-08T09:11:15.928Z,89.56
2019-01-08T09:13:49.858Z,89.66
2019-01-08T09:16:23.280Z,89.14
2019-01-08T09:19:02.245Z,88.99
2019-01-08T09:21:33.515Z,88.86
2019-01-08T09:24:08.642Z,88.35
2019-01-08T09:26:49.774Z,88.23
2019-01-08T09:29:31.934Z,88.59
2019-01-08T09:32:07.441Z,88.94
2019-01-08T09:34:48.898Z,88.89
2019-01-08T09:37:22.406Z,88.51
2019-01-08T09:39:53.677Z,88.23
2019-01-08T09:42:26.418Z,88.44
2019-01-08T09:44:58.338Z,88.38
2019-01-08T09:47:32.644Z,88.33
2019-01-08T09:50:05.001Z,87.88
2019-01-08T09:52:39.068Z,88.16
2019-01-08T09:55:18.364Z,88.10
2019-01-08T09:57:50.173Z,87.60
2019-01-08T10:00:23.156Z,87.44
2019-01-08T10:02:56.982Z,86.86
2019-01-08T10:05:36.487Z,87.03
2019-01-08T10:08:08.834Z,87.03
2019-01-08T10:10:48.475Z,87.11
2019-01-08T10:13:20.279Z,86.46
2019-01-08T10:16:01.037Z,86.99
2019-01-08T10:18:34.047Z,87.03
2019-01-08T10:21:14.068Z,87.38
2019-01-08T10:23:54.540Z,87.46
2019-01-08T10:26:33.243Z,87.29
2019-01-08T10:29:06.053Z,87.01
2019-01-08T10:31:37.278Z,87.00
2019-01-08T10:34:18.713Z,86.19
2019-01-08T10:36:58.733Z,85.74
2019-01-08T10:39:37.512Z,85.40
2019-01-08T10:42:18.126Z,84.68
2019-01-08T10:44:50.418Z,83.29
2019-01-08T11:34:53.562Z,80.66
2019-01-08T11:37:35.377Z,82.10
2019-01-08T11:40:08.670Z,83.87
2019-01-08T11:42:41.527Z,84.74
2019-01-08T11:45:18.712Z,84.89
2019-01-08T11:48:03.923Z,84.89
2019-01-08T11:50:31.436Z,84.28
2019-01-08T11:53:03.731Z,85.05
2019-01-08T11:55:40.930Z,84.80
2019-01-08T11:58:13.783Z,84.55
2019-01-08T12:00:54.320Z,84.65
2019-01-08T12:03:27.629Z,83.03
2019-01-08T12:06:01.512Z,82.53
2019-01-08T12:08:32.722Z,83.71
2019-01-08T12:11:05.554Z,84.08
2019-01-08T12:13:38.687Z,84.40
2019-01-08T12:16:12.658Z,85.22
2019-01-08T12:18:47.050Z,85.21
2019-01-08T12:21:20.667Z,85.67
2019-01-08T12:24:02.017Z,86.33
2019-01-08T12:26:34.830Z,86.83
2019-01-08T12:29:07.997Z,86.98
2019-01-08T12:31:40.671Z,87.03
2019-01-08T12:34:13.826Z,86.80
2019-01-08T12:36:49.564Z,86.35
2019-01-08T12:39:21.855Z,86.19
2019-01-08T12:42:00.766Z,85.70
2019-01-08T12:44:34.675Z,85.80
2019-01-08T12:47:13.060Z,86.00
2019-01-08T12:49:44.921Z,85.78
2019-01-08T12:52:16.471Z,85.51
2019-01-08T12:54:51.143Z,85.44
2019-01-08T12:57:32.116Z,85.55
2019-01-08T13:00:03.982Z,85.50
2019-01-08T13:02:35.786Z,85.86
2019-01-08T13:05:09.595Z,85.36
2019-01-08T13:07:43.687Z,85.36
2019-01-08T13:10:17.830Z,85.56
2019-01-08T13:12:51.750Z,85.11
2019-01-08T13:15:23.272Z,85.25
2019-01-08T13:17:57.080Z,85.53
2019-01-08T13:20:29.914Z,85.87
2019-01-08T13:23:02.544Z,85.96
2019-01-08T13:25:34.180Z,85.17
2019-01-08T13:28:08.109Z,85.56
2019-01-08T13:30:49.808Z,86.21
2019-01-08T13:33:25.531Z,85.72
2019-01-08T13:35:58.328Z,86.40
2019-01-08T13:38:32.876Z,86.76
2019-01-08T13:41:06.081Z,87.22
2019-01-08T13:43:47.968Z,87.25
2019-01-08T13:46:28.061Z,87.43
2019-01-08T13:49:01.176Z,87.10
2019-01-08T13:51:32.714Z,87.63
2019-01-08T13:54:06.081Z,87.92
2019-01-08T13:56:39.105Z,88.20
2019-01-08T13:59:11.264Z,88.89
2019-01-08T14:01:46.844Z,88.87
2019-01-08T14:04:18.150Z,89.11
2019-01-08T14:06:52.167Z,88.54
2019-01-08T14:09:23.363Z,88.67
2019-01-08T14:11:57.359Z,89.05
2019-01-08T14:14:30.132Z,89.56
2019-01-08T14:17:02.928Z,89.44
2019-01-08T14:19:34.246Z,89.43
2019-01-08T14:22:08.210Z,89.67
2019-01-08T14:24:42.034Z,89.53
2019-01-08T14:27:15.296Z,89.51
2019-01-08T14:29:49.470Z,89.37
2019-01-08T14:32:22.299Z,89.20
2019-01-08T14:34:56.249Z,89.42
2019-01-08T14:37:30.067Z,89.55
2019-01-08T14:40:03.332Z,89.71
2019-01-08T14:42:38.186Z,89.61
2019-01-08T14:45:14.736Z,89.08
2019-01-08T14:47:48.112Z,88.55
2019-01-08T14:50:29.559Z,88.87
2019-01-08T14:53:01.309Z,89.01
2019-01-08T14:55:35.836Z,89.10
2019-01-08T14:58:10.374Z,89.20
2019-01-08T15:00:42.522Z,88.99
2019-01-08T15:03:17.383Z,88.77
2019-01-08T15:05:56.536Z,88.63
2019-01-08T15:08:30.283Z,89.09
2019-01-08T15:11:04.495Z,88.98
2019-01-08T15:13:35.709Z,88.43
2019-01-08T15:16:14.318Z,88.70
2019-01-08T15:18:52.686Z,88.71
2019-01-08T15:21:24.473Z,89.14
2019-01-08T15:23:58.650Z,89.36
2019-01-08T15:26:37.296Z,89.28
2019-01-08T15:29:13.960Z,89.00
2019-01-08T15:31:45.411Z,89.24
2019-01-08T15:34:18.704Z,89.39
2019-01-08T15:36:52.646Z,89.54
2019-01-08T15:39:25.615Z,89.41
2019-01-08T15:41:58.931Z,89.29
2019-01-08T15:44:31.578Z,89.70
2019-01-08T15:47:11.993Z,89.70
2019-01-08T15:49:44.745Z,89.80
2019-01-08T15:52:18.610Z,89.65
2019-01-08T15:54:50.696Z,89.44
2019-01-08T15:57:24.681Z,89.68
2019-01-08T15:59:57.814Z,89.50
2019-01-08T16:02:35.757Z,89.59
2019-01-08T16:05:15.602Z,89.47
2019-01-08T16:07:53.727Z,89.69
2019-01-08T16:10:24.973Z,89.77
2019-01-08T16:12:58.888Z,90.26
2019-01-08T16:15:33.396Z,89.95
2019-01-08T16:18:06.072Z,89.88
2019-01-08T16:20:41.480Z,89.87
2019-01-08T16:23:18.245Z,89.64
2019-01-08T16:25:51.538Z,90.11
2019-01-08T16:28:24.798Z,90.46
2019-01-08T16:30:57.865Z,90.81
2019-01-08T16:33:30.840Z,90.74
2019-01-08T16:36:04.794Z,90.87
2019-01-08T16:38:36.198Z,91.20
2019-01-08T16:41:12.265Z,91.05
2019-01-08T16:43:45.788Z,91.26
2019-01-08T16:46:17.006Z,91.05
2019-01-08T16:48:49.037Z,91.23
2019-01-08T16:51:20.243Z,90.97
2019-01-08T16:53:53.971Z,91.19
2019-01-08T16:56:27.192Z,91.22
2019-01-08T16:59:00.861Z,90.88
2019-01-08T17:01:34.852Z,90.87
2019-01-08T17:04:06.230Z,90.79
2019-01-08T17:06:38.823Z,90.78
2019-01-08T17:09:12.806Z,91.07
2019-01-08T17:11:46.034Z,90.92
2019-01-08T17:14:20.051Z,90.97
2019-01-08T17:16:53.032Z,90.78
2019-01-08T17:19:27.072Z,91.04
2019-01-08T17:21:58.320Z,91.28
2019-01-08T17:24:30.813Z,91.37
2019-01-08T17:27:02.997Z,91.51
2019-01-08T17:29:42.368Z,91.37
2019-01-08T17:32:22.401Z,91.38
2019-01-08T17:35:02.090Z,90.97
2019-01-08T17:37:35.714Z,91.06
2019-01-08T17:40:12.283Z,91.58
2019-01-08T17:42:51.848Z,91.50
2019-01-08T17:45:29.006Z,91.15
2019-01-08T17:48:11.207Z,90.96
2019-01-08T17:50:45.105Z,91.05
2019-01-08T17:53:25.227Z,91.06
2019-01-08T17:55:58.281Z,91.19
2019-01-08T17:58:52.148Z,91.25
2019-01-08T18:01:29.502Z,91.24
2019-01-08T18:04:03.251Z,91.43
2019-01-08T18:06:43.603Z,91.12
2019-01-08T18:09:18.390Z,91.00
2019-01-08T18:11:50.103Z,91.33
2019-01-08T18:14:24.187Z,91.27
2019-01-08T18:17:07.309Z,91.48
2019-01-08T18:19:40.593Z,91.58
2019-01-08T18:22:12.233Z,91.16
2019-01-08T18:24:45.403Z,91.05
2019-01-08T18:27:24.307Z,91.30
2019-01-08T18:30:03.686Z,91.17
2019-01-08T18:32:41.544Z,91.33
2019-01-08T18:35:15.471Z,91.36
2019-01-08T18:37:48.377Z,91.50
2019-01-08T18:40:20.598Z,91.47
2019-01-08T18:42:55.602Z,91.59
2019-01-08T18:45:27.417Z,91.55
2019-01-08T18:48:03.102Z,91.57
2019-01-08T18:50:34.776Z,91.40
2019-01-08T18:53:09.074Z,91.39
2019-01-08T18:55:48.579Z,91.42
2019-01-08T18:58:21.493Z,91.33
2019-01-08T19:01:05.662Z,91.12
2019-01-08T19:03:38.505Z,91.37
2019-01-08T19:06:11.579Z,91.38
2019-01-08T19:09:36.510Z,91.48
2019-01-08T19:12:10.804Z,91.67
2019-01-08T19:14:43.121Z,91.54
2019-01-08T19:17:19.864Z,91.79
2019-01-08T19:19:51.562Z,91.39
2019-01-08T19:22:24.159Z,91.24
2019-01-08T19:24:57.324Z,91.40
2019-01-08T19:27:29.614Z,91.42
2019-01-08T19:30:10.326Z,91.29
2019-01-08T19:32:42.690Z,91.57
2019-01-08T19:35:15.057Z,91.66
2019-01-08T19:37:48.780Z,91.50
2019-01-08T19:40:21.642Z,91.24
2019-01-08T19:42:52.929Z,91.43
2019-01-08T19:45:35.829Z,91.56
2019-01-08T19:48:08.726Z,91.82
2019-01-08T19:50:39.945Z,91.88
2019-01-08T19:53:15.531Z,92.09
2019-01-08T19:55:49.573Z,91.96
2019-01-08T19:58:29.635Z,91.83
2019-01-08T20:01:14.383Z,92.03
2019-01-08T20:03:52.015Z,92.02
2019-01-08T20:06:25.860Z,92.16
2019-01-08T20:08:58.701Z,92.11
2019-01-08T20:11:30.009Z,92.09
2019-01-08T20:14:05.580Z,92.26
2019-01-08T20:16:36.825Z,92.12
2019-01-08T20:19:10.432Z,92.12
2019-01-08T20:21:42.677Z,92.21
2019-01-08T20:24:22.221Z,92.43
2019-01-08T20:27:02.283Z,92.13
2019-01-08T20:29:35.670Z,91.78
2019-01-08T20:32:10.587Z,91.44
2019-01-08T20:34:42.984Z,91.40
2019-01-08T20:37:15.841Z,91.32
2019-01-08T20:39:50.807Z,91.77
2019-01-08T20:42:24.048Z,91.36
2019-01-08T20:45:03.230Z,91.45
2019-01-08T20:47:42.464Z,91.62
2019-01-08T20:50:21.045Z,91.48
2019-01-08T20:53:00.120Z,91.30
2019-01-08T20:55:33.192Z,91.33
2019-01-08T20:58:09.269Z,91.03
2019-01-08T21:00:44.954Z,91.13
2019-01-08T21:03:17.693Z,91.00
2019-01-08T21:05:51.525Z,90.97
2019-01-08T21:08:23.963Z,91.10
2019-01-08T21:11:00.414Z,91.46
2019-01-08T21:13:31.890Z,91.51
2019-01-08T21:16:06.635Z,91.38
2019-01-08T21:18:44.851Z,91.50
2019-01-08T21:21:19.226Z,91.83
2019-01-08T21:23:52.126Z,91.81
2019-01-08T21:26:26.126Z,91.65
2019-01-08T21:29:00.812Z,91.65
2019-01-08T21:31:33.343Z,91.69
2019-01-08T21:34:07.305Z,91.45
2019-01-08T21:36:48.341Z,91.62
2019-01-08T21:39:23.313Z,91.52
2019-01-08T21:42:01.667Z,91.32
2019-01-08T21:44:35.971Z,91.38
2019-01-08T21:47:08.222Z,91.63
2019-01-08T21:49:42.193Z,91.52
2019-01-08T21:52:13.401Z,91.60
2019-01-08T21:54:47.290Z,91.69
2019-01-08T21:57:22.012Z,91.49
2019-01-08T21:59:54.680Z,91.74
2019-01-08T22:02:27.310Z,91.95
2019-01-08T22:05:03.075Z,92.34
2019-01-08T22:07:37.662Z,92.07
2019-01-08T22:10:11.355Z,91.75
2019-01-08T22:12:47.134Z,91.73
2019-01-08T22:15:18.342Z,91.74
2019-01-08T22:17:49.753Z,91.81
2019-01-08T22:20:30.569Z,91.54
2019-01-08T22:23:09.961Z,91.52
2019-01-08T22:25:44.093Z,91.24
2019-01-08T22:28:23.805Z,91.40
2019-01-08T22:30:56.371Z,91.49
2019-01-08T22:33:28.328Z,91.27
2019-01-08T22:36:01.510Z,91.17
2019-01-08T22:38:34.560Z,91.29
2019-01-08T22:41:08.638Z,91.10
2019-01-08T22:43:41.827Z,91.30
2019-01-08T22:46:15.750Z,90.96
2019-01-08T22:48:49.494Z,90.89
2019-01-08T22:51:22.527Z,91.05
2019-01-08T22:53:54.602Z,91.04
2019-01-08T22:56:25.852Z,91.14
2019-01-08T22:59:16.776Z,91.04
2019-01-08T23:02:10.568Z,91.11
2019-01-08T23:04:53.081Z,91.17
2019-01-08T23:07:35.622Z,91.40
2019-01-08T23:10:09.920Z,91.27
2019-01-08T23:12:43.508Z,90.87
2019-01-08T23:15:23.879Z,90.76
2019-01-08T23:17:58.616Z,90.74
2019-01-08T23:20:32.469Z,91.26
2019-01-08T23:23:05.536Z,91.02
2019-01-08T23:25:36.945Z,90.63
2019-01-08T23:28:08.538Z,90.79
2019-01-08T23:30:41.899Z,90.85
2019-01-08T23:33:15.642Z,90.91
2019-01-08T23:35:55.528Z,90.96
2019-01-08T23:38:28.773Z,91.10
2019-01-08T23:41:04.325Z,90.82
2019-01-08T23:43:45.435Z,91.18
2019-01-08T23:46:24.563Z,91.20
2019-01-08T23:48:59.142Z,90.81
2019-01-08T23:51:32.683Z,90.74
2019-01-08T23:54:03.931Z,91.41
2019-01-08T23:56:36.578Z,91.23
2019-01-08T23:59:07.884Z,91.56
